Time;durP1;ratioP1;P1;durP2;ratioP2;P2;SDS_P1;SDS_P2;PMS_P1;PMS_P2;Temp;Humidity;BMP_temperature;BMP_pressure;BME280_temperature;BME280_humidity;BME280_pressure;Samples;Min_cycle;Max_cycle;Signal;HPM_P1;HPM_P2
2022/01/16 00:05:07;;;;;;;;;;;;;;;;;;5057925;28;20434;-82
2022/01/16 00:07:34;;;;;;;;;;;;;;;;;;5065271;28;19967;-81
2022/01/16 00:10:02;;;;;;;;;;;;;;;;;;5065689;28;20014;-82
2022/01/16 00:12:29;;;;;;;;;;;;;;;;;;5062980;28;19929;-83
2022/01/16 00:14:56;;;;;;;;;;;;;;;;;;5061202;28;20396;-83
2022/01/16 00:17:27;;;;;;;;;;;;;;;;;;5064452;28;20298;-83
2022/01/16 00:19:54;;;;;;;;;;;;;;;;;;5065012;28;19925;-83
2022/01/16 00:22:25;;;;;;;;;;;;;;;;;;5063236;28;19931;-82
2022/01/16 00:24:52;;;;;;;;;;;;;;;;;;5065540;28;19925;-82
2022/01/16 00:27:19;;;;;;;;;;;;;;;;;;5063299;28;19925;-81
2022/01/16 00:29:47;;;;;;;;;;;;;;;;;;5065115;28;19947;-82
2022/01/16 00:32:14;;;;;;;;;;;;;;;;;;5064321;28;19929;-82
2022/01/16 00:34:41;;;;;;;;;;;;;;;;;;5062183;28;20444;-82
2022/01/16 00:37:08;;;;;;;;;;;;;;;;;;5063717;28;20235;-81
2022/01/16 00:39:35;;;;;;;;;;;;;;;;;;5066111;28;19925;-82
2022/01/16 00:42:02;;;;;;;;;;;;;;;;;;5065415;28;19924;-82
2022/01/16 00:44:30;;;;;;;;;;;;;;;;;;5069109;28;19928;-82
2022/01/16 00:46:57;;;;;;;;;;;;;;;;;;5065216;28;19932;-80
2022/01/16 00:49:24;;;;;;;;;;;;;;;;;;5069142;28;19932;-81
2022/01/16 00:51:51;;;;;;;;;;;;;;;;;;5069575;28;19947;-82
2022/01/16 00:54:18;;;;;;;;;;;;;;;;;;5069005;28;19925;-82
2022/01/16 00:56:45;;;;;;;;;;;;;;;;;;5061990;28;19935;-81
2022/01/16 00:59:13;;;;;;;;;;;;;;;;;;5062014;28;19929;-81
2022/01/16 01:01:40;;;;;;;;;;;;;;;;;;5063031;28;19932;-81
2022/01/16 01:04:07;;;;;;;;;;;;;;;;;;5054869;28;19924;-81
2022/01/16 01:06:36;;;;;;;;;;;;;;;;;;5050523;28;19931;-81
2022/01/16 01:09:03;;;;;;;;;;;;;;;;;;5053706;28;19925;-81
2022/01/16 01:11:31;;;;;;;;;;;;;;;;;;5064913;22;20023;-73
2022/01/16 01:14:15;;;;;;;;;;;;;;;;;;5049582;28;19925;-73
2022/01/16 01:16:51;;;;;;;;;;;;;;;;;;5045868;28;19956;-73
2022/01/16 01:19:18;;;;;;;;;;;;;;;;;;5046107;28;19933;-73
2022/01/16 01:21:45;;;;;;;;;;;;;;;;;;5045287;28;19925;-73
2022/01/16 01:24:12;;;;;;;;;;;;;;;;;;5044829;28;19929;-73
2022/01/16 01:26:47;;;;;;;;;;;;;;;;;;5053750;28;19931;-73
2022/01/16 01:29:18;;;;;;;;;;;;;;;;;;5045745;28;19925;-73
2022/01/16 01:31:45;;;;;;;;;;;;;;;;;;5044699;28;19925;-73
2022/01/16 01:34:12;;;;;;;;;;;;;;;;;;5050571;28;19978;-74
2022/01/16 01:36:38;;;;;;;;;;;;;;;;;;5051554;28;19925;-73
2022/01/16 01:39:05;;;;;;;;;;;;;;;;;;5048920;28;19932;-73
2022/01/16 01:41:32;;;;;;;;;;;;;;;;;;5046899;28;20306;-73
2022/01/16 01:52:13;;;;;;;;;;;;;;;;;;5049386;28;19955;-73
2022/01/16 01:54:40;;;;;;;;;;;;;;;;;;5051901;28;19925;-72
2022/01/16 01:57:07;;;;;;;;;;;;;;;;;;5044984;28;19925;-73
2022/01/16 01:59:34;;;;;;;;;;;;;;;;;;5048418;28;19929;-73
2022/01/16 02:02:01;;;;;;;;;;;;;;;;;;5049701;28;20108;-73
2022/01/16 02:04:28;;;;;;;;;;;;;;;;;;5049151;28;20397;-73
2022/01/16 02:06:55;;;;;;;;;;;;;;;;;;5041737;28;19932;-73
2022/01/16 02:09:22;;;;;;;;;;;;;;;;;;5049863;28;19932;-73
2022/01/16 02:11:49;;;;;;;;;;;;;;;;;;5045764;28;20305;-73
2022/01/16 02:14:26;;;;;;;;;;;;;;;;;;5051212;28;20352;-73
2022/01/16 02:28:06;;;;;;;;;;;;;;;;;;5043886;28;20282;-73
2022/01/16 02:36:24;;;;;;;;;;;;;;;;;;5034126;28;19932;-72
2022/01/16 02:38:51;;;;;;;;;;;;;;;;;;5046104;28;19925;-73
2022/01/16 02:41:18;;;;;;;;;;;;;;;;;;5048857;28;19925;-73
2022/01/16 02:43:49;;;;;;;;;;;;;;;;;;5047212;28;20082;-73
2022/01/16 02:49:00;;;;;;;;;;;;;;;;;;5040295;28;19919;-73
2022/01/16 02:51:27;;;;;;;;;;;;;;;;;;5050330;28;20382;-72
2022/01/16 02:53:54;;;;;;;;;;;;;;;;;;5045952;28;19949;-73
2022/01/16 02:56:21;;;;;;;;;;;;;;;;;;5040694;28;19933;-73
2022/01/16 02:58:48;;;;;;;;;;;;;;;;;;5045561;28;19928;-72
2022/01/16 03:01:15;;;;;;;;;;;;;;;;;;5047762;28;20382;-72
2022/01/16 03:03:42;;;;;;;;;;;;;;;;;;5048635;28;19932;-72
2022/01/16 03:06:09;;;;;;;;;;;;;;;;;;5042626;28;20294;-71
2022/01/16 03:08:36;;;;;;;;;;;;;;;;;;5048909;28;19925;-73
2022/01/16 03:11:14;;;;;;;;;;;;;;;;;;5049721;28;20068;-73
2022/01/16 03:13:41;;;;;;;;;;;;;;;;;;5045958;28;19955;-72
2022/01/16 03:16:08;;;;;;;;;;;;;;;;;;5045406;28;20279;-73
2022/01/16 03:24:04;;;;;;;;;;;;;;;;;;5045630;28;19924;-73
2022/01/16 03:26:31;;;;;;;;;;;;;;;;;;5042824;28;19925;-73
2022/01/16 03:28:58;;;;;;;;;;;;;;;;;;5046452;28;19925;-73
2022/01/16 03:31:25;;;;;;;;;;;;;;;;;;5044820;28;19925;-72
2022/01/16 03:33:51;;;;;;;;;;;;;;;;;;5051433;28;19932;-72
2022/01/16 03:36:18;;;;;;;;;;;;;;;;;;5038041;28;19925;-72
2022/01/16 03:38:45;;;;;;;;;;;;;;;;;;5050348;28;19925;-73
2022/01/16 03:41:12;;;;;;;;;;;;;;;;;;5047444;28;20301;-72
2022/01/16 03:43:39;;;;;;;;;;;;;;;;;;5050236;28;19929;-72
2022/01/16 03:46:06;;;;;;;;;;;;;;;;;;5048702;28;19925;-73
2022/01/16 03:48:33;;;;;;;;;;;;;;;;;;5044297;28;19925;-73
2022/01/16 03:51:02;;;;;;;;;;;;;;;;;;5046500;28;20393;-72
2022/01/16 03:53:28;;;;;;;;;;;;;;;;;;5046394;28;19929;-72
2022/01/16 03:55:55;;;;;;;;;;;;;;;;;;5048907;28;19925;-72
2022/01/16 03:58:22;;;;;;;;;;;;;;;;;;5040835;28;19925;-72
2022/01/16 04:00:49;;;;;;;;;;;;;;;;;;5042880;28;19999;-73
2022/01/16 04:03:16;;;;;;;;;;;;;;;;;;5046799;28;19932;-72
2022/01/16 04:05:43;;;;;;;;;;;;;;;;;;5050258;28;19932;-73
2022/01/16 04:08:10;;;;;;;;;;;;;;;;;;5048113;28;19925;-73
2022/01/16 04:10:37;;;;;;;;;;;;;;;;;;5047508;28;20492;-72
2022/01/16 04:13:04;;;;;;;;;;;;;;;;;;5043872;28;20015;-73
2022/01/16 04:15:34;;;;;;;;;;;;;;;;;;5046616;28;19929;-73
2022/01/16 04:18:01;;;;;;;;;;;;;;;;;;5042553;28;19932;-73
2022/01/16 04:20:28;;;;;;;;;;;;;;;;;;5037937;28;19929;-73
2022/01/16 04:22:55;;;;;;;;;;;;;;;;;;5044989;28;19925;-73
2022/01/16 04:25:22;;;;;;;;;;;;;;;;;;5045928;28;19925;-73
2022/01/16 04:27:49;;;;;;;;;;;;;;;;;;5043221;28;20124;-72
2022/01/16 04:30:16;;;;;;;;;;;;;;;;;;5047647;28;20115;-72
2022/01/16 04:32:43;;;;;;;;;;;;;;;;;;5043057;28;20375;-72
2022/01/16 04:35:10;;;;;;;;;;;;;;;;;;5048885;28;19944;-72
2022/01/16 04:37:36;;;;;;;;;;;;;;;;;;5047060;28;19925;-72
2022/01/16 04:40:04;;;;;;;;;;;;;;;;;;5048663;28;19925;-72
2022/01/16 04:45:16;;;;;;;;;;;;;;;;;;5045352;28;19924;-72
2022/01/16 04:47:43;;;;;;;;;;;;;;;;;;5047658;28;19925;-72
2022/01/16 04:50:12;;;;;;;;;;;;;;;;;;5044660;28;19929;-72
2022/01/16 04:52:39;;;;;;;;;;;;;;;;;;5040194;28;19925;-72
2022/01/16 04:55:06;;;;;;;;;;;;;;;;;;5038106;28;20294;-72
2022/01/16 04:57:33;;;;;;;;;;;;;;;;;;5041992;28;19933;-72
2022/01/16 05:00:00;;;;;;;;;;;;;;;;;;5046326;28;19925;-71
2022/01/16 05:02:27;;;;;;;;;;;;;;;;;;5035787;28;20055;-73
2022/01/16 05:04:54;;;;;;;;;;;;;;;;;;5046551;28;19935;-73
2022/01/16 05:07:21;;;;;;;;;;;;;;;;;;5045616;28;19932;-72
2022/01/16 05:09:48;;;;;;;;;;;;;;;;;;5045737;28;20386;-70
2022/01/16 05:12:25;;;;;;;;;;;;;;;;;;5043368;28;21351;-72
2022/01/16 05:17:36;;;;;;;;;;;;;;;;;;5046285;28;21281;-72
2022/01/16 05:20:03;;;;;;;;;;;;;;;;;;5043212;28;20294;-72
2022/01/16 05:22:30;;;;;;;;;;;;;;;;;;5037464;28;20386;-72
2022/01/16 05:24:57;;;;;;;;;;;;;;;;;;5047135;28;19925;-72
2022/01/16 05:27:24;;;;;;;;;;;;;;;;;;5040688;28;19935;-72
2022/01/16 05:29:51;;;;;;;;;;;;;;;;;;5046706;28;19931;-72
2022/01/16 05:32:18;;;;;;;;;;;;;;;;;;5047810;28;19925;-72
2022/01/16 05:34:45;;;;;;;;;;;;;;;;;;5044915;28;19935;-72
2022/01/16 05:37:12;;;;;;;;;;;;;;;;;;5052371;28;19924;-72
2022/01/16 05:39:40;;;;;;;;;;;;;;;;;;5051193;28;19951;-72
2022/01/16 05:42:07;;;;;;;;;;;;;;;;;;5044816;28;19964;-72
2022/01/16 05:44:34;;;;;;;;;;;;;;;;;;5052035;28;19925;-72
2022/01/16 05:47:02;;;;;;;;;;;;;;;;;;5052137;28;20314;-72
2022/01/16 05:49:29;;;;;;;;;;;;;;;;;;5046868;28;19925;-72
2022/01/16 05:51:56;;;;;;;;;;;;;;;;;;5049975;28;19936;-72
2022/01/16 05:54:23;;;;;;;;;;;;;;;;;;5052080;28;19925;-72
2022/01/16 05:56:50;;;;;;;;;;;;;;;;;;5048156;28;20374;-72
2022/01/16 05:59:17;;;;;;;;;;;;;;;;;;5049035;28;19925;-71
2022/01/16 06:01:44;;;;;;;;;;;;;;;;;;5046570;28;19925;-72
2022/01/16 06:04:11;;;;;;;;;;;;;;;;;;5048545;28;19925;-72
2022/01/16 06:06:38;;;;;;;;;;;;;;;;;;5046479;28;19925;-72
2022/01/16 06:09:05;;;;;;;;;;;;;;;;;;5046551;28;19940;-72
2022/01/16 06:11:32;;;;;;;;;;;;;;;;;;5049918;28;19954;-72
2022/01/16 06:13:59;;;;;;;;;;;;;;;;;;5046931;28;20373;-72
2022/01/16 06:16:26;;;;;;;;;;;;;;;;;;5045065;28;20029;-73
2022/01/16 06:18:53;;;;;;;;;;;;;;;;;;5047688;28;19924;-72
2022/01/16 06:21:20;;;;;;;;;;;;;;;;;;5048025;28;20414;-72
2022/01/16 06:23:47;;;;;;;;;;;;;;;;;;5047026;28;19925;-73
2022/01/16 06:26:14;;;;;;;;;;;;;;;;;;5049843;28;19925;-72
2022/01/16 06:28:41;;;;;;;;;;;;;;;;;;5047153;28;19947;-72
2022/01/16 06:31:08;;;;;;;;;;;;;;;;;;5047134;28;19925;-73
2022/01/16 06:33:35;;;;;;;;;;;;;;;;;;5048470;28;19925;-72
2022/01/16 06:36:02;;;;;;;;;;;;;;;;;;5044362;28;19932;-73
2022/01/16 06:38:29;;;;;;;;;;;;;;;;;;5044212;28;19932;-72
2022/01/16 06:40:56;;;;;;;;;;;;;;;;;;5048309;28;19929;-74
2022/01/16 06:43:23;;;;;;;;;;;;;;;;;;5050739;28;19925;-73
2022/01/16 06:45:49;;;;;;;;;;;;;;;;;;5051578;28;19924;-73
2022/01/16 06:48:16;;;;;;;;;;;;;;;;;;5047899;28;19925;-71
2022/01/16 06:50:43;;;;;;;;;;;;;;;;;;5044467;28;19932;-72
2022/01/16 06:53:10;;;;;;;;;;;;;;;;;;5047982;28;20020;-72
2022/01/16 06:55:37;;;;;;;;;;;;;;;;;;5040270;28;19933;-71
2022/01/16 06:58:04;;;;;;;;;;;;;;;;;;5046519;28;19932;-72
2022/01/16 07:00:31;;;;;;;;;;;;;;;;;;5046528;28;19947;-72
2022/01/16 07:02:58;;;;;;;;;;;;;;;;;;5042694;28;20314;-72
2022/01/16 07:05:25;;;;;;;;;;;;;;;;;;5048660;28;19928;-72
2022/01/16 07:07:52;;;;;;;;;;;;;;;;;;5047878;28;19940;-71
2022/01/16 07:10:20;;;;;;;;;;;;;;;;;;5047019;28;19924;-70
2022/01/16 07:12:46;;;;;;;;;;;;;;;;;;5061524;22;20222;-67
2022/01/16 07:15:13;;;;;;;;;;;;;;;;;;5043390;28;19924;-67
2022/01/16 07:17:40;;;;;;;;;;;;;;;;;;5045396;28;19925;-68
2022/01/16 07:20:07;;;;;;;;;;;;;;;;;;5044726;28;19929;-67
2022/01/16 07:22:34;;;;;;;;;;;;;;;;;;5049828;28;20366;-68
2022/01/16 07:25:01;;;;;;;;;;;;;;;;;;5047568;28;20252;-68
2022/01/16 07:27:28;;;;;;;;;;;;;;;;;;5047662;28;19929;-67
2022/01/16 07:29:55;;;;;;;;;;;;;;;;;;5049285;28;20454;-68
2022/01/16 07:32:22;;;;;;;;;;;;;;;;;;5049374;28;20023;-69
2022/01/16 07:34:49;;;;;;;;;;;;;;;;;;5048957;28;19925;-69
2022/01/16 07:37:16;;;;;;;;;;;;;;;;;;5049074;28;20311;-69
2022/01/16 07:39:42;;;;;;;;;;;;;;;;;;5048375;28;20003;-68
2022/01/16 07:42:09;;;;;;;;;;;;;;;;;;5044050;28;19925;-68
2022/01/16 07:44:36;;;;;;;;;;;;;;;;;;5048929;28;19925;-68
2022/01/16 07:47:03;;;;;;;;;;;;;;;;;;5049002;28;19932;-69
2022/01/16 07:49:30;;;;;;;;;;;;;;;;;;5048965;28;20009;-69
2022/01/16 07:51:57;;;;;;;;;;;;;;;;;;5048379;28;20140;-68
2022/01/16 07:54:24;;;;;;;;;;;;;;;;;;5045933;28;19924;-68
2022/01/16 07:56:51;;;;;;;;;;;;;;;;;;5045033;28;19932;-69
2022/01/16 07:59:18;;;;;;;;;;;;;;;;;;5047068;28;19929;-68
2022/01/16 08:01:45;;;;;;;;;;;;;;;;;;5046308;28;19982;-69
2022/01/16 08:04:12;;;;;;;;;;;;;;;;;;5046876;28;19961;-67
2022/01/16 08:06:39;;;;;;;;;;;;;;;;;;5049018;28;19925;-69
2022/01/16 08:09:05;;;;;;;;;;;;;;;;;;5044957;28;20402;-68
2022/01/16 08:11:32;;;;;;;;;;;;;;;;;;5049340;28;19925;-68
2022/01/16 08:14:00;;;;;;;;;;;;;;;;;;5049096;28;20329;-69
2022/01/16 08:16:27;;;;;;;;;;;;;;;;;;5047633;28;19929;-70
2022/01/16 08:18:54;;;;;;;;;;;;;;;;;;5046462;28;20027;-70
2022/01/16 08:21:21;;;;;;;;;;;;;;;;;;5048959;28;20378;-69
2022/01/16 08:23:48;;;;;;;;;;;;;;;;;;5045918;28;19936;-69
2022/01/16 08:26:15;;;;;;;;;;;;;;;;;;5047413;28;20301;-68
2022/01/16 08:28:41;;;;;;;;;;;;;;;;;;5043695;28;20015;-68
2022/01/16 08:31:08;;;;;;;;;;;;;;;;;;5045450;28;19936;-68
2022/01/16 08:33:35;;;;;;;;;;;;;;;;;;5043941;28;20386;-68
2022/01/16 08:36:02;;;;;;;;;;;;;;;;;;5036222;28;19925;-68
2022/01/16 08:38:30;;;;;;;;;;;;;;;;;;5043084;28;19925;-68
2022/01/16 08:40:57;;;;;;;;;;;;;;;;;;5047818;28;19931;-68
2022/01/16 08:43:24;;;;;;;;;;;;;;;;;;5047282;28;19932;-68
2022/01/16 08:45:51;;;;;;;;;;;;;;;;;;5048172;28;20364;-68
2022/01/16 08:48:20;;;;;;;;;;;;;;;;;;5048039;28;20357;-68
2022/01/16 08:50:47;;;;;;;;;;;;;;;;;;5045604;28;20216;-68
2022/01/16 08:53:14;;;;;;;;;;;;;;;;;;5044657;28;19925;-69
2022/01/16 08:55:41;;;;;;;;;;;;;;;;;;5041215;28;19925;-70
2022/01/16 08:58:08;;;;;;;;;;;;;;;;;;5046343;28;19929;-69
2022/01/16 09:00:35;;;;;;;;;;;;;;;;;;5046698;28;19925;-67
2022/01/16 09:03:02;;;;;;;;;;;;;;;;;;5047237;28;19929;-68
2022/01/16 09:05:29;;;;;;;;;;;;;;;;;;5048774;28;19925;-67
2022/01/16 09:07:56;;;;;;;;;;;;;;;;;;5050540;28;19936;-68
2022/01/16 09:10:23;;;;;;;;;;;;;;;;;;5051088;28;19925;-68
2022/01/16 09:12:49;;;;;;;;;;;;;;;;;;5043503;28;19932;-68
2022/01/16 09:15:16;;;;;;;;;;;;;;;;;;5051578;28;19931;-68
2022/01/16 09:17:43;;;;;;;;;;;;;;;;;;5051985;28;19925;-68
2022/01/16 09:20:13;;;;;;;;;;;;;;;;;;5046342;28;19925;-68
2022/01/16 09:22:40;;;;;;;;;;;;;;;;;;5050228;28;20219;-68
2022/01/16 09:25:07;;;;;;;;;;;;;;;;;;5044730;28;19956;-68
2022/01/16 09:27:34;;;;;;;;;;;;;;;;;;5050632;28;19948;-67
2022/01/16 09:30:00;;;;;;;;;;;;;;;;;;5050120;28;19925;-68
2022/01/16 09:32:27;;;;;;;;;;;;;;;;;;5049277;28;19933;-68
2022/01/16 09:34:54;;;;;;;;;;;;;;;;;;5051127;28;19932;-68
2022/01/16 09:37:21;;;;;;;;;;;;;;;;;;5045873;28;19947;-68
2022/01/16 09:39:50;;;;;;;;;;;;;;;;;;5045355;28;19925;-68
2022/01/16 09:42:17;;;;;;;;;;;;;;;;;;5046707;28;19935;-67
2022/01/16 09:44:44;;;;;;;;;;;;;;;;;;5050081;28;19924;-68
2022/01/16 09:47:11;;;;;;;;;;;;;;;;;;5051695;28;19951;-68
2022/01/16 09:49:39;;;;;;;;;;;;;;;;;;5050887;28;19929;-68
2022/01/16 09:52:06;;;;;;;;;;;;;;;;;;5047173;28;19960;-68
2022/01/16 09:54:33;;;;;;;;;;;;;;;;;;5047826;28;20294;-68
2022/01/16 09:57:00;;;;;;;;;;;;;;;;;;5045870;28;19932;-69
2022/01/16 09:59:27;;;;;;;;;;;;;;;;;;5050613;28;20309;-67
2022/01/16 10:01:54;;;;;;;;;;;;;;;;;;5049677;28;19932;-67
2022/01/16 10:04:21;;;;;;;;;;;;;;;;;;5046970;28;19924;-67
2022/01/16 10:06:47;;;;;;;;;;;;;;;;;;5051971;28;20509;-67
2022/01/16 10:09:14;;;;;;;;;;;;;;;;;;5046729;28;19932;-67
2022/01/16 10:11:46;;;;;;;;;;;;;;;;;;5047563;28;19933;-67
2022/01/16 10:14:21;;;;;;;;;;;;;;;;;;5050575;28;19936;-66
2022/01/16 10:16:48;;;;;;;;;;;;;;;;;;5050636;28;20313;-67
2022/01/16 10:19:15;;;;;;;;;;;;;;;;;;5051230;28;19924;-68
2022/01/16 10:21:42;;;;;;;;;;;;;;;;;;5047908;28;19924;-67
2022/01/16 10:24:09;;;;;;;;;;;;;;;;;;5041152;28;19925;-68
2022/01/16 10:26:36;;;;;;;;;;;;;;;;;;5049767;28;19931;-68
2022/01/16 10:29:03;;;;;;;;;;;;;;;;;;5044520;28;20318;-67
2022/01/16 10:31:30;;;;;;;;;;;;;;;;;;5043210;28;20418;-67
2022/01/16 10:33:57;;;;;;;;;;;;;;;;;;5050315;28;20492;-67
2022/01/16 10:36:24;;;;;;;;;;;;;;;;;;5046959;28;19961;-67
2022/01/16 10:38:51;;;;;;;;;;;;;;;;;;5047215;28;19925;-67
2022/01/16 10:41:18;;;;;;;;;;;;;;;;;;5048348;28;20112;-67
2022/01/16 10:43:45;;;;;;;;;;;;;;;;;;5048610;28;20302;-67
2022/01/16 10:46:12;;;;;;;;;;;;;;;;;;5046080;28;20388;-67
2022/01/16 10:48:39;;;;;;;;;;;;;;;;;;5046382;28;20386;-68
2022/01/16 10:51:06;;;;;;;;;;;;;;;;;;5049806;28;19979;-67
2022/01/16 10:53:39;;;;;;;;;;;;;;;;;;5043306;28;20015;-68
2022/01/16 10:56:06;;;;;;;;;;;;;;;;;;5045504;28;19925;-68
2022/01/16 10:58:33;;;;;;;;;;;;;;;;;;5048382;28;19978;-68
2022/01/16 11:01:03;;;;;;;;;;;;;;;;;;5047423;28;19929;-68
2022/01/16 11:03:30;;;;;;;;;;;;;;;;;;5040255;28;19979;-68
2022/01/16 11:05:57;;;;;;;;;;;;;;;;;;5042140;28;19925;-67
2022/01/16 11:08:25;;;;;;;;;;;;;;;;;;5038195;28;20394;-67
2022/01/16 11:10:54;;;;;;;;;;;;;;;;;;5038528;28;19968;-67
2022/01/16 11:13:21;;;;;;;;;;;;;;;;;;5028406;28;19932;-67
2022/01/16 11:15:48;;;;;;;;;;;;;;;;;;5037095;28;19925;-67
2022/01/16 11:18:15;;;;;;;;;;;;;;;;;;5045651;28;19932;-67
2022/01/16 11:20:44;;;;;;;;;;;;;;;;;;5045585;28;19940;-67
2022/01/16 11:23:26;;;;;;;;;;;;;;;;;;5041469;28;19929;-66
2022/01/16 11:25:53;;;;;;;;;;;;;;;;;;5036970;28;21454;-68
2022/01/16 11:28:20;;;;;;;;;;;;;;;;;;5042109;28;20023;-67
2022/01/16 11:30:48;;;;;;;;;;;;;;;;;;5045076;28;19964;-67
2022/01/16 11:33:15;;;;;;;;;;;;;;;;;;5045602;28;20008;-68
2022/01/16 11:35:42;;;;;;;;;;;;;;;;;;5048707;28;19925;-69
2022/01/16 11:38:09;;;;;;;;;;;;;;;;;;5046886;28;20437;-68
2022/01/16 11:40:43;;;;;;;;;;;;;;;;;;5045796;28;19925;-66
2022/01/16 11:43:10;;;;;;;;;;;;;;;;;;5044182;28;19933;-66
2022/01/16 11:45:37;;;;;;;;;;;;;;;;;;5044815;28;19932;-67
2022/01/16 11:48:04;;;;;;;;;;;;;;;;;;5044593;28;20318;-67
2022/01/16 11:50:31;;;;;;;;;;;;;;;;;;5043258;28;20292;-66
2022/01/16 11:52:58;;;;;;;;;;;;;;;;;;5041731;28;19929;-66
2022/01/16 11:55:24;;;;;;;;;;;;;;;;;;5045496;28;19925;-66
2022/01/16 11:57:51;;;;;;;;;;;;;;;;;;5045946;28;19932;-66
2022/01/16 12:00:20;;;;;;;;;;;;;;;;;;5043233;28;19972;-65
2022/01/16 12:02:48;;;;;;;;;;;;;;;;;;5038437;28;20035;-66
2022/01/16 12:05:15;;;;;;;;;;;;;;;;;;5046913;28;20609;-66
2022/01/16 12:07:45;;;;;;;;;;;;;;;;;;5044994;28;20314;-65
2022/01/16 12:10:12;;;;;;;;;;;;;;;;;;5043222;28;20341;-65
2022/01/16 12:12:39;;;;;;;;;;;;;;;;;;5046065;28;19929;-65
2022/01/16 12:15:06;;;;;;;;;;;;;;;;;;5042108;28;19929;-64
2022/01/16 12:17:33;;;;;;;;;;;;;;;;;;5045896;28;19967;-68
2022/01/16 12:20:00;;;;;;;;;;;;;;;;;;5044185;28;19979;-67
2022/01/16 12:22:27;;;;;;;;;;;;;;;;;;5045365;28;19971;-67
2022/01/16 12:24:54;;;;;;;;;;;;;;;;;;5043631;28;20398;-68
2022/01/16 12:27:21;;;;;;;;;;;;;;;;;;5045399;28;20115;-68
2022/01/16 12:29:48;;;;;;;;;;;;;;;;;;5039000;28;19931;-67
2022/01/16 12:32:15;;;;;;;;;;;;;;;;;;5047082;28;19959;-68
2022/01/16 12:34:42;;;;;;;;;;;;;;;;;;5045122;28;19943;-67
2022/01/16 12:37:09;;;;;;;;;;;;;;;;;;5042025;28;20092;-68
2022/01/16 12:39:36;;;;;;;;;;;;;;;;;;5043035;28;19925;-67
2022/01/16 12:42:03;;;;;;;;;;;;;;;;;;5040361;28;20310;-68
2022/01/16 12:44:30;;;;;;;;;;;;;;;;;;5044216;28;20483;-67
2022/01/16 12:46:58;;;;;;;;;;;;;;;;;;5044809;28;20362;-67
2022/01/16 12:49:26;;;;;;;;;;;;;;;;;;5043236;28;19925;-67
2022/01/16 12:51:53;;;;;;;;;;;;;;;;;;5044965;28;19925;-67
2022/01/16 12:54:20;;;;;;;;;;;;;;;;;;5041309;28;19932;-66
2022/01/16 12:56:47;;;;;;;;;;;;;;;;;;5043036;28;19924;-66
2022/01/16 12:59:14;;;;;;;;;;;;;;;;;;5041009;28;20009;-68
2022/01/16 13:01:42;;;;;;;;;;;;;;;;;;5044594;28;19925;-67
2022/01/16 13:04:09;;;;;;;;;;;;;;;;;;5047207;28;19928;-66
2022/01/16 13:06:36;;;;;;;;;;;;;;;;;;5046484;28;19925;-66
2022/01/16 13:09:03;;;;;;;;;;;;;;;;;;5045313;28;19933;-66
2022/01/16 13:11:30;;;;;;;;;;;;;;;;;;5060079;22;19931;-68
2022/01/16 13:13:57;;;;;;;;;;;;;;;;;;5042490;28;19925;-70
2022/01/16 13:16:24;;;;;;;;;;;;;;;;;;5041530;28;19947;-71
2022/01/16 13:18:51;;;;;;;;;;;;;;;;;;5036565;28;19925;-70
2022/01/16 13:21:18;;;;;;;;;;;;;;;;;;5042354;28;21529;-71
2022/01/16 13:23:45;;;;;;;;;;;;;;;;;;5042587;28;20305;-71
2022/01/16 13:26:12;;;;;;;;;;;;;;;;;;5043169;28;20393;-71
2022/01/16 13:28:39;;;;;;;;;;;;;;;;;;5046335;28;19932;-73
2022/01/16 13:31:06;;;;;;;;;;;;;;;;;;5043470;28;19929;-71
2022/01/16 13:33:33;;;;;;;;;;;;;;;;;;5045335;28;19928;-70
2022/01/16 13:36:00;;;;;;;;;;;;;;;;;;5043849;28;20291;-70
2022/01/16 13:38:27;;;;;;;;;;;;;;;;;;5042394;28;20382;-70
2022/01/16 13:40:54;;;;;;;;;;;;;;;;;;5046724;28;20417;-72
2022/01/16 13:43:22;;;;;;;;;;;;;;;;;;5041280;28;20294;-71
2022/01/16 13:45:49;;;;;;;;;;;;;;;;;;5043341;28;19929;-72
2022/01/16 13:48:16;;;;;;;;;;;;;;;;;;5047066;28;20007;-71
2022/01/16 13:50:43;;;;;;;;;;;;;;;;;;5049378;28;19928;-71
2022/01/16 13:53:10;;;;;;;;;;;;;;;;;;5044052;28;19931;-71
2022/01/16 13:55:37;;;;;;;;;;;;;;;;;;5048049;28;19924;-70
2022/01/16 13:58:04;;;;;;;;;;;;;;;;;;5046551;28;19936;-73
2022/01/16 14:00:31;;;;;;;;;;;;;;;;;;5047563;28;20362;-69
2022/01/16 14:02:58;;;;;;;;;;;;;;;;;;5044231;28;19964;-70
2022/01/16 14:05:25;;;;;;;;;;;;;;;;;;5051358;28;19931;-70
2022/01/16 14:07:52;;;;;;;;;;;;;;;;;;5045634;28;19928;-71
2022/01/16 14:10:19;;;;;;;;;;;;;;;;;;5043654;28;19970;-70
2022/01/16 14:12:46;;;;;;;;;;;;;;;;;;5046276;28;19925;-73
2022/01/16 14:15:13;;;;;;;;;;;;;;;;;;5045735;28;19925;-71
2022/01/16 14:17:43;;;;;;;;;;;;;;;;;;5048732;28;19925;-71
2022/01/16 14:20:25;;;;;;;;;;;;;;;;;;5044110;28;19936;-69
2022/01/16 14:22:52;;;;;;;;;;;;;;;;;;5045991;28;19929;-72
2022/01/16 14:25:21;;;;;;;;;;;;;;;;;;5046368;28;19947;-70
2022/01/16 14:27:48;;;;;;;;;;;;;;;;;;5041772;28;19940;-70
2022/01/16 14:30:15;;;;;;;;;;;;;;;;;;5045631;28;19924;-71
2022/01/16 14:32:42;;;;;;;;;;;;;;;;;;5047036;28;19928;-70
2022/01/16 14:35:09;;;;;;;;;;;;;;;;;;5050256;28;19929;-71
2022/01/16 14:37:36;;;;;;;;;;;;;;;;;;5044437;28;19932;-71
2022/01/16 14:40:03;;;;;;;;;;;;;;;;;;5044702;28;19936;-72
2022/01/16 14:42:36;;;;;;;;;;;;;;;;;;5045847;28;19924;-69
2022/01/16 14:45:03;;;;;;;;;;;;;;;;;;5045567;28;19925;-70
2022/01/16 14:47:30;;;;;;;;;;;;;;;;;;5044900;28;20274;-69
2022/01/16 14:49:57;;;;;;;;;;;;;;;;;;5047213;28;19925;-70
2022/01/16 14:52:24;;;;;;;;;;;;;;;;;;5048972;28;19924;-69
2022/01/16 14:54:51;;;;;;;;;;;;;;;;;;5042487;28;19952;-70
2022/01/16 14:57:18;;;;;;;;;;;;;;;;;;5044597;28;20315;-70
2022/01/16 14:59:44;;;;;;;;;;;;;;;;;;5043813;28;19948;-70
2022/01/16 15:02:11;;;;;;;;;;;;;;;;;;5043697;28;20349;-70
2022/01/16 15:04:38;;;;;;;;;;;;;;;;;;5045830;28;19932;-70
2022/01/16 15:07:06;;;;;;;;;;;;;;;;;;5042362;28;19929;-70
2022/01/16 15:09:33;;;;;;;;;;;;;;;;;;5048277;28;19924;-71
2022/01/16 15:12:00;;;;;;;;;;;;;;;;;;5047794;28;19925;-71
2022/01/16 15:14:27;;;;;;;;;;;;;;;;;;5051508;28;19929;-72
2022/01/16 15:16:57;;;;;;;;;;;;;;;;;;5046255;28;19932;-72
2022/01/16 15:19:29;;;;;;;;;;;;;;;;;;5047366;28;19931;-70
2022/01/16 15:22:10;;;;;;;;;;;;;;;;;;5041691;28;19933;-69
2022/01/16 15:24:37;;;;;;;;;;;;;;;;;;5045478;28;19933;-69
2022/01/16 15:27:04;;;;;;;;;;;;;;;;;;5047089;28;20293;-69
2022/01/16 15:29:31;;;;;;;;;;;;;;;;;;5047906;28;19935;-70
2022/01/16 15:31:58;;;;;;;;;;;;;;;;;;5047073;28;19935;-70
2022/01/16 15:34:25;;;;;;;;;;;;;;;;;;5043620;28;19967;-68
2022/01/16 15:36:52;;;;;;;;;;;;;;;;;;5045959;28;19936;-69
2022/01/16 15:39:20;;;;;;;;;;;;;;;;;;5043635;28;19932;-69
2022/01/16 15:41:47;;;;;;;;;;;;;;;;;;5046435;28;19943;-68
2022/01/16 15:44:14;;;;;;;;;;;;;;;;;;5051001;28;20366;-69
2022/01/16 15:46:40;;;;;;;;;;;;;;;;;;5045878;28;20519;-69
2022/01/16 15:49:08;;;;;;;;;;;;;;;;;;5037387;28;19933;-69
2022/01/16 15:51:35;;;;;;;;;;;;;;;;;;5044208;28;19925;-68
2022/01/16 15:54:02;;;;;;;;;;;;;;;;;;5049622;28;19935;-69
2022/01/16 15:56:28;;;;;;;;;;;;;;;;;;5044945;28;20278;-70
2022/01/16 15:58:56;;;;;;;;;;;;;;;;;;5047743;28;20382;-69
2022/01/16 16:01:23;;;;;;;;;;;;;;;;;;5045316;28;19933;-69
2022/01/16 16:03:50;;;;;;;;;;;;;;;;;;5044876;28;19933;-69
2022/01/16 16:06:17;;;;;;;;;;;;;;;;;;5049767;28;20294;-69
2022/01/16 16:08:45;;;;;;;;;;;;;;;;;;5038451;28;20602;-69
2022/01/16 16:11:11;;;;;;;;;;;;;;;;;;5057298;28;19929;-69
2022/01/16 16:13:38;;;;;;;;;;;;;;;;;;5048662;28;19925;-69
2022/01/16 16:16:05;;;;;;;;;;;;;;;;;;5041518;28;19944;-69
2022/01/16 16:18:32;;;;;;;;;;;;;;;;;;5044682;28;19929;-68
2022/01/16 16:20:59;;;;;;;;;;;;;;;;;;5040007;28;19931;-68
2022/01/16 16:23:26;;;;;;;;;;;;;;;;;;5047668;28;19932;-68
2022/01/16 16:25:53;;;;;;;;;;;;;;;;;;5046222;28;19947;-69
2022/01/16 16:28:20;;;;;;;;;;;;;;;;;;5049072;28;19932;-69
2022/01/16 16:30:47;;;;;;;;;;;;;;;;;;5043771;28;19976;-69
2022/01/16 16:33:14;;;;;;;;;;;;;;;;;;5048007;28;20287;-71
2022/01/16 16:35:41;;;;;;;;;;;;;;;;;;5042292;28;19933;-69
2022/01/16 16:38:08;;;;;;;;;;;;;;;;;;5048793;28;19928;-69
2022/01/16 16:40:34;;;;;;;;;;;;;;;;;;5047255;28;19925;-69
2022/01/16 16:43:01;;;;;;;;;;;;;;;;;;5045004;28;19932;-69
2022/01/16 16:45:28;;;;;;;;;;;;;;;;;;5043447;28;19925;-68
2022/01/16 16:47:56;;;;;;;;;;;;;;;;;;5047924;28;19929;-68
2022/01/16 16:50:28;;;;;;;;;;;;;;;;;;5051789;28;19933;-70
2022/01/16 16:52:54;;;;;;;;;;;;;;;;;;5049985;28;19929;-68
2022/01/16 16:55:21;;;;;;;;;;;;;;;;;;5046964;28;19933;-69
2022/01/16 16:57:49;;;;;;;;;;;;;;;;;;5040007;28;19929;-69
2022/01/16 17:00:16;;;;;;;;;;;;;;;;;;5042573;28;19929;-69
2022/01/16 17:02:43;;;;;;;;;;;;;;;;;;5048022;28;20500;-69
2022/01/16 17:05:09;;;;;;;;;;;;;;;;;;5043617;28;19925;-68
2022/01/16 17:07:37;;;;;;;;;;;;;;;;;;5047803;28;19932;-69
2022/01/16 17:10:04;;;;;;;;;;;;;;;;;;5047250;28;19971;-69
2022/01/16 17:12:30;;;;;;;;;;;;;;;;;;5038641;28;19954;-69
2022/01/16 17:14:59;;;;;;;;;;;;;;;;;;5046054;28;19932;-70
2022/01/16 17:17:26;;;;;;;;;;;;;;;;;;5046133;28;20386;-69
2022/01/16 17:19:53;;;;;;;;;;;;;;;;;;5047217;28;19933;-69
2022/01/16 17:22:20;;;;;;;;;;;;;;;;;;5048720;28;19925;-69
2022/01/16 17:24:48;;;;;;;;;;;;;;;;;;5046061;28;19932;-70
2022/01/16 17:27:14;;;;;;;;;;;;;;;;;;5054696;28;20271;-69
2022/01/16 17:29:41;;;;;;;;;;;;;;;;;;5044700;28;19925;-69